Huvudsida
METAR-TAF:

METAR-TAF

Flygplatser :

Kunming Changshui International Airport

Kunming, Kina

latitud: 25-01N, longitud: 102-41E, höjd: 1892 m

Aktuellt väderrapport

Denna rapport gjordes för 33 minuter sedan, klockan 11:00 UTC
Vind 21 kt från sydväst
Temperatur 22°C
Fuktighet 35%
Tryck 1011 hPa
Sikt 10 km eller mer
Inga moln under 1 500 m eller inga cumulonimbus

METAR: ZPPP 181100Z 22011MPS CAVOK 22/06 Q1011 NOSIG

Tid: 19:33 (11:33 UTC)

Väderprognos

Denna rapport gjordes för 2 timmar och 23 minuter sedan, klockan 09:10 UTC
Prognos gäller från 18 kl. 12 UTC till 19 kl. 12 UTC
Vind 12 kt från sydväst
Sikt 10 km eller mer
Spridda moln på en höjd av 2600 ft
Blir
från 19 kl. 06 UTC till 19 kl. 07 UTC
Vind 21 kt från sydväst i byarna ända upp till 33 kt

TAF: ZPPP 180910Z 1812/1912 23006MPS 9999 SCT026 TX27/1908Z TN15/1823Z BECMG 1906/1907 23011G17MPS

Aktuella väderrapporter och prognoser från 4000 flygplatser (METAR- och TAF-rapporter).

De tillgängliga stationerna syns som gula och röda prickar på kartan.

För musen över prickarna för att se namnen på stationerna.

Klicka sedan för att få väderrapporter och prognoser.

För att ändra kartan: Klicka på de gröna knapparna med ett svart kors på för att zooma in; den gröna knappen med ett streck på för att zooma ut; eller på de gröna pilarna för angränsande kartor.


METAR-TAF: